Daybreak2
, South Jordan
Last Weather Update:4/16/2012 10:00:00 AM
Date
ETo
ETc
Rain
Irrigation
Req
Temp
Max
Temp
Min
Temp
Avg
Avg RH
Avg Wind
Avg Solar
inches
inches
incehs
inches
F
F
F
%
%
watts/m2
3/1/2012 0.05" 0.00" 0.16" -0.16" 35.6° 24.3° 28.9° 74.7% 4.9 MPH 150.1w/m2
3/2/2012 0.05" 0.00" 0.00" 0.00" 30.2° 21.8° 25.3° 69.6% 8.1 MPH 187.3w/m2
3/3/2012 0.06" 0.00" 0.00" 0.00" 36.7° 23.0° 31.0° 57.9% 8.2 MPH 131.9w/m2
3/4/2012 0.10" 0.00" 0.00" 0.00" 52.7° 32.6° 40.3° 54.0% 7.0 MPH 206.9w/m2
3/5/2012 0.15" 0.00" 0.00" 0.00" 60.6° 36.8° 48.6° 38.9% 10.7 MPH 200.1w/m2
3/6/2012 0.11" 0.00" 0.00" 0.00" 56.5° 24.3° 43.0° 48.7% 13.4 MPH 79.2w/m2
3/7/2012 0.08" 0.00" 0.01" -0.01" 36.1° 24.0° 30.1° 61.3% 14.1 MPH 226.0w/m2
3/8/2012 0.09" 0.00" 0.00" 0.00" 46.2° 26.1° 33.9° 52.1% 6.8 MPH 215.3w/m2
3/9/2012 0.10" 0.00" 0.00" 0.00" 50.3° 28.0° 38.5° 52.1% 5.3 MPH 214.8w/m2
3/10/2012 0.12" 0.00" 0.00" 0.00" 56.9° 29.0° 43.3° 46.9% 5.7 MPH 216.1w/m2
3/11/2012 0.17" 0.00" 0.00" 0.00" 62.9° 39.9° 51.1° 30.0% 10.2 MPH 217.4w/m2
3/12/2012 0.20" 0.00" 0.00" 0.00" 64.3° 44.1° 54.1° 23.8% 11.4 MPH 217.3w/m2
3/13/2012 0.18" 0.00" 0.00" 0.00" 63.1° 48.6° 55.6° 20.3% 11.1 MPH 113.7w/m2
3/14/2012 0.16" 0.00" 0.00" 0.00" 60.9° 48.7° 54.8° 27.9% 9.3 MPH 130.3w/m2
3/15/2012 0.17" 0.00" 0.00" 0.00" 65.9° 44.1° 55.8° 33.9% 7.9 MPH 170.4w/m2
3/16/2012 0.18" 0.00" 0.00" 0.00" 65.5° 50.7° 57.7° 28.3% 9.7 MPH 139.9w/m2
3/17/2012 0.17" 0.00" 0.00" 0.00" 62.0° 48.3° 55.8° 33.8% 12.9 MPH 90.9w/m2
3/18/2012 0.04" 0.00" 0.19" -0.19" 49.2° 29.9° 36.7° 81.0% 10.8 MPH 88.7w/m2
3/19/2012 0.08" 0.00" 0.06" -0.06" 39.4° 27.6° 32.4° 74.0% 6.7 MPH 190.0w/m2
3/20/2012 0.09" 0.00" 0.16" -0.16" 42.9° 19.1° 33.1° 69.8% 6.2 MPH 246.4w/m2
3/21/2012 0.15" 0.00" 0.00" 0.00" 58.1° 39.3° 47.3° 43.1% 8.4 MPH 231.1w/m2
3/22/2012 0.20" 0.00" 0.00" 0.00" 67.5° 43.1° 55.0° 33.8% 9.7 MPH 243.8w/m2
3/23/2012 0.21" 0.00" 0.00" 0.00" 70.1° 53.3° 60.8° 24.7% 10.2 MPH 169.6w/m2
3/24/2012 0.18" 0.00" 0.00" 0.00" 71.2° 48.1° 58.7° 31.8% 8.0 MPH 193.3w/m2
3/25/2012 0.18" 0.00" 0.00" 0.00" 69.0° 49.7° 59.7° 26.9% 7.5 MPH 160.3w/m2
3/26/2012 0.11" 0.00" 0.02" -0.02" 56.8° 34.7° 46.9° 42.5% 8.8 MPH 123.0w/m2
3/27/2012 0.14" 0.00" 0.00" 0.00" 58.0° 36.2° 48.0° 38.8% 7.7 MPH 164.3w/m2
3/28/2012 0.17" 0.00" 0.00" 0.00" 64.9° 45.8° 53.4° 38.1% 8.8 MPH 186.6w/m2
3/29/2012 0.11" 0.00" 0.00" 0.00" 58.9° 35.9° 47.9° 64.0% 7.6 MPH 172.4w/m2
3/30/2012 0.17" 0.00" 0.00" 0.00" 68.6° 43.5° 56.5° 41.0% 7.4 MPH 208.8w/m2
3/31/2012 0.28" 0.00" 0.00" 0.00" 76.5° 52.5° 64.3° 27.2% 13.3 MPH 255.2w/m2
Totals: 4.25" 0.00" 0.60" -0.60" 76.5° 19.1° 46.7° 44.9% 9.0 MPH 178.7w/m2